sensor_id;sensor_type;location;lat;lon;timestamp;P1;durP1;ratioP1;P2;durP2;ratioP2
54705;SDS011;40603;48.774;8.916;2023-05-23T00:00:49;27.48;;;16.02;;
54705;SDS011;40603;48.774;8.916;2023-05-23T00:03:15;24.67;;;16.30;;
54705;SDS011;40603;48.774;8.916;2023-05-23T00:05:41;27.38;;;17.35;;
54705;SDS011;40603;48.774;8.916;2023-05-23T00:08:06;26.55;;;16.83;;
54705;SDS011;40603;48.774;8.916;2023-05-23T00:10:31;36.67;;;21.70;;
54705;SDS011;40603;48.774;8.916;2023-05-23T00:12:57;46.20;;;24.73;;
54705;SDS011;40603;48.774;8.916;2023-05-23T00:15:22;44.15;;;22.92;;
54705;SDS011;40603;48.774;8.916;2023-05-23T00:17:48;46.03;;;27.23;;
54705;SDS011;40603;48.774;8.916;2023-05-23T00:20:13;47.28;;;26.55;;
54705;SDS011;40603;48.774;8.916;2023-05-23T00:22:40;56.95;;;29.52;;
54705;SDS011;40603;48.774;8.916;2023-05-23T00:25:07;61.08;;;30.08;;
54705;SDS011;40603;48.774;8.916;2023-05-23T00:27:33;60.15;;;31.63;;
54705;SDS011;40603;48.774;8.916;2023-05-23T00:29:59;60.05;;;31.98;;
54705;SDS011;40603;48.774;8.916;2023-05-23T00:32:24;58.90;;;31.25;;
54705;SDS011;40603;48.774;8.916;2023-05-23T00:34:50;53.10;;;29.05;;
54705;SDS011;40603;48.774;8.916;2023-05-23T00:37:18;55.70;;;30.52;;
54705;SDS011;40603;48.774;8.916;2023-05-23T00:39:43;63.40;;;31.85;;
54705;SDS011;40603;48.774;8.916;2023-05-23T00:42:08;59.72;;;31.55;;
54705;SDS011;40603;48.774;8.916;2023-05-23T00:44:33;59.92;;;31.38;;
54705;SDS011;40603;48.774;8.916;2023-05-23T00:46:59;61.72;;;32.22;;
54705;SDS011;40603;48.774;8.916;2023-05-23T00:49:24;69.00;;;33.42;;
54705;SDS011;40603;48.774;8.916;2023-05-23T00:51:51;61.60;;;32.15;;
54705;SDS011;40603;48.774;8.916;2023-05-23T00:54:17;57.33;;;31.10;;
54705;SDS011;40603;48.774;8.916;2023-05-23T00:56:45;60.42;;;33.72;;
54705;SDS011;40603;48.774;8.916;2023-05-23T00:59:12;65.13;;;32.45;;
54705;SDS011;40603;48.774;8.916;2023-05-23T01:01:37;65.65;;;36.17;;
54705;SDS011;40603;48.774;8.916;2023-05-23T01:04:04;69.50;;;33.75;;
54705;SDS011;40603;48.774;8.916;2023-05-23T01:06:30;68.40;;;35.92;;
54705;SDS011;40603;48.774;8.916;2023-05-23T01:08:57;60.25;;;33.55;;
54705;SDS011;40603;48.774;8.916;2023-05-23T01:11:29;68.70;;;34.65;;
54705;SDS011;40603;48.774;8.916;2023-05-23T01:14:00;66.63;;;34.75;;
54705;SDS011;40603;48.774;8.916;2023-05-23T01:16:34;67.20;;;34.40;;
54705;SDS011;40603;48.774;8.916;2023-05-23T01:19:11;67.38;;;35.70;;
54705;SDS011;40603;48.774;8.916;2023-05-23T01:21:49;69.40;;;35.03;;
54705;SDS011;40603;48.774;8.916;2023-05-23T01:24:28;70.22;;;35.65;;
54705;SDS011;40603;48.774;8.916;2023-05-23T01:29:48;71.70;;;37.72;;
54705;SDS011;40603;48.774;8.916;2023-05-23T01:32:18;75.63;;;38.83;;
54705;SDS011;40603;48.774;8.916;2023-05-23T01:34:46;70.78;;;38.08;;
54705;SDS011;40603;48.774;8.916;2023-05-23T01:37:12;65.97;;;37.70;;
54705;SDS011;40603;48.774;8.916;2023-05-23T01:39:38;81.07;;;41.53;;
54705;SDS011;40603;48.774;8.916;2023-05-23T01:42:04;75.60;;;41.25;;
54705;SDS011;40603;48.774;8.916;2023-05-23T01:44:30;76.97;;;42.35;;
54705;SDS011;40603;48.774;8.916;2023-05-23T01:46:57;85.40;;;43.85;;
54705;SDS011;40603;48.774;8.916;2023-05-23T01:49:22;88.57;;;45.67;;
54705;SDS011;40603;48.774;8.916;2023-05-23T01:51:48;82.97;;;44.17;;
54705;SDS011;40603;48.774;8.916;2023-05-23T01:54:14;87.55;;;45.00;;
54705;SDS011;40603;48.774;8.916;2023-05-23T01:56:40;87.28;;;46.67;;
54705;SDS011;40603;48.774;8.916;2023-05-23T01:59:07;86.25;;;47.35;;
54705;SDS011;40603;48.774;8.916;2023-05-23T02:01:33;85.30;;;44.97;;
54705;SDS011;40603;48.774;8.916;2023-05-23T02:03:58;89.30;;;45.53;;
54705;SDS011;40603;48.774;8.916;2023-05-23T02:06:24;86.88;;;45.08;;
54705;SDS011;40603;48.774;8.916;2023-05-23T02:08:49;87.53;;;46.78;;
54705;SDS011;40603;48.774;8.916;2023-05-23T02:11:15;89.88;;;45.72;;
54705;SDS011;40603;48.774;8.916;2023-05-23T02:13:40;94.20;;;49.45;;
54705;SDS011;40603;48.774;8.916;2023-05-23T02:16:05;86.20;;;45.70;;
54705;SDS011;40603;48.774;8.916;2023-05-23T02:18:31;86.18;;;45.75;;
54705;SDS011;40603;48.774;8.916;2023-05-23T02:20:56;80.97;;;47.40;;
54705;SDS011;40603;48.774;8.916;2023-05-23T02:23:22;82.50;;;46.03;;
54705;SDS011;40603;48.774;8.916;2023-05-23T02:25:47;91.85;;;46.63;;
54705;SDS011;40603;48.774;8.916;2023-05-23T02:28:12;92.43;;;48.63;;
54705;SDS011;40603;48.774;8.916;2023-05-23T02:30:38;93.63;;;48.47;;
54705;SDS011;40603;48.774;8.916;2023-05-23T02:33:04;84.97;;;48.10;;
54705;SDS011;40603;48.774;8.916;2023-05-23T02:35:30;79.97;;;44.53;;
54705;SDS011;40603;48.774;8.916;2023-05-23T02:37:55;83.78;;;46.33;;
54705;SDS011;40603;48.774;8.916;2023-05-23T02:40:20;82.05;;;47.67;;
54705;SDS011;40603;48.774;8.916;2023-05-23T02:42:46;79.28;;;45.13;;
54705;SDS011;40603;48.774;8.916;2023-05-23T02:45:11;83.20;;;45.50;;
54705;SDS011;40603;48.774;8.916;2023-05-23T02:47:37;84.43;;;46.83;;
54705;SDS011;40603;48.774;8.916;2023-05-23T02:50:02;84.50;;;46.85;;
54705;SDS011;40603;48.774;8.916;2023-05-23T02:52:27;83.95;;;46.28;;
54705;SDS011;40603;48.774;8.916;2023-05-23T02:54:53;77.90;;;45.95;;
54705;SDS011;40603;48.774;8.916;2023-05-23T02:57:18;82.85;;;47.78;;
54705;SDS011;40603;48.774;8.916;2023-05-23T02:59:43;86.45;;;46.20;;
54705;SDS011;40603;48.774;8.916;2023-05-23T03:02:09;83.57;;;45.90;;
54705;SDS011;40603;48.774;8.916;2023-05-23T03:04:34;83.63;;;44.50;;
54705;SDS011;40603;48.774;8.916;2023-05-23T03:06:59;77.93;;;43.65;;
54705;SDS011;40603;48.774;8.916;2023-05-23T03:09:25;80.28;;;44.13;;
54705;SDS011;40603;48.774;8.916;2023-05-23T03:11:50;78.60;;;42.15;;
54705;SDS011;40603;48.774;8.916;2023-05-23T03:14:16;72.72;;;41.63;;
54705;SDS011;40603;48.774;8.916;2023-05-23T03:16:41;84.47;;;43.17;;
54705;SDS011;40603;48.774;8.916;2023-05-23T03:19:06;74.00;;;43.58;;
54705;SDS011;40603;48.774;8.916;2023-05-23T03:21:32;73.40;;;42.85;;
54705;SDS011;40603;48.774;8.916;2023-05-23T03:23:59;69.32;;;44.15;;
54705;SDS011;40603;48.774;8.916;2023-05-23T03:26:24;78.80;;;42.35;;
54705;SDS011;40603;48.774;8.916;2023-05-23T03:28:49;75.05;;;43.13;;
54705;SDS011;40603;48.774;8.916;2023-05-23T03:31:15;74.03;;;43.58;;
54705;SDS011;40603;48.774;8.916;2023-05-23T03:33:41;74.10;;;42.42;;
54705;SDS011;40603;48.774;8.916;2023-05-23T03:36:06;79.40;;;42.80;;
54705;SDS011;40603;48.774;8.916;2023-05-23T03:38:31;65.97;;;40.70;;
54705;SDS011;40603;48.774;8.916;2023-05-23T03:40:56;71.60;;;41.45;;
54705;SDS011;40603;48.774;8.916;2023-05-23T03:43:22;77.65;;;42.88;;
54705;SDS011;40603;48.774;8.916;2023-05-23T03:45:47;73.35;;;41.08;;
54705;SDS011;40603;48.774;8.916;2023-05-23T03:48:12;69.38;;;40.88;;
54705;SDS011;40603;48.774;8.916;2023-05-23T03:50:38;64.40;;;41.17;;
54705;SDS011;40603;48.774;8.916;2023-05-23T03:53:04;73.93;;;41.60;;
54705;SDS011;40603;48.774;8.916;2023-05-23T03:55:30;67.28;;;41.78;;
54705;SDS011;40603;48.774;8.916;2023-05-23T03:57:56;71.15;;;40.75;;
54705;SDS011;40603;48.774;8.916;2023-05-23T04:00:21;65.72;;;39.90;;
54705;SDS011;40603;48.774;8.916;2023-05-23T04:02:47;64.65;;;39.90;;
54705;SDS011;40603;48.774;8.916;2023-05-23T04:05:12;66.07;;;41.53;;
54705;SDS011;40603;48.774;8.916;2023-05-23T04:07:37;70.22;;;41.10;;
54705;SDS011;40603;48.774;8.916;2023-05-23T04:10:03;58.88;;;38.67;;
54705;SDS011;40603;48.774;8.916;2023-05-23T04:12:28;67.72;;;41.72;;
54705;SDS011;40603;48.774;8.916;2023-05-23T04:14:57;70.55;;;39.83;;
54705;SDS011;40603;48.774;8.916;2023-05-23T04:17:23;68.25;;;39.78;;
54705;SDS011;40603;48.774;8.916;2023-05-23T04:19:49;61.70;;;39.65;;
54705;SDS011;40603;48.774;8.916;2023-05-23T04:22:14;67.53;;;41.25;;
54705;SDS011;40603;48.774;8.916;2023-05-23T04:24:40;68.07;;;41.63;;
54705;SDS011;40603;48.774;8.916;2023-05-23T04:27:05;61.22;;;40.80;;
54705;SDS011;40603;48.774;8.916;2023-05-23T04:29:31;62.05;;;39.85;;
54705;SDS011;40603;48.774;8.916;2023-05-23T04:31:57;69.32;;;43.25;;
54705;SDS011;40603;48.774;8.916;2023-05-23T04:34:22;68.78;;;42.38;;
54705;SDS011;40603;48.774;8.916;2023-05-23T04:36:48;69.82;;;44.40;;
54705;SDS011;40603;48.774;8.916;2023-05-23T04:39:13;65.88;;;42.78;;
54705;SDS011;40603;48.774;8.916;2023-05-23T04:41:39;68.35;;;45.63;;
54705;SDS011;40603;48.774;8.916;2023-05-23T04:44:05;66.05;;;43.53;;
54705;SDS011;40603;48.774;8.916;2023-05-23T04:46:31;72.60;;;46.45;;
54705;SDS011;40603;48.774;8.916;2023-05-23T04:48:56;68.03;;;44.78;;
54705;SDS011;40603;48.774;8.916;2023-05-23T04:51:23;71.28;;;47.08;;
54705;SDS011;40603;48.774;8.916;2023-05-23T04:53:49;72.22;;;44.60;;
54705;SDS011;40603;48.774;8.916;2023-05-23T04:56:15;63.05;;;43.22;;
54705;SDS011;40603;48.774;8.916;2023-05-23T04:58:41;68.68;;;44.80;;
54705;SDS011;40603;48.774;8.916;2023-05-23T05:01:09;75.60;;;46.78;;
54705;SDS011;40603;48.774;8.916;2023-05-23T05:03:34;77.13;;;47.95;;
54705;SDS011;40603;48.774;8.916;2023-05-23T05:06:00;72.55;;;46.75;;
54705;SDS011;40603;48.774;8.916;2023-05-23T05:08:26;74.22;;;47.38;;
54705;SDS011;40603;48.774;8.916;2023-05-23T05:10:52;69.53;;;45.20;;
54705;SDS011;40603;48.774;8.916;2023-05-23T05:13:21;67.83;;;46.67;;
54705;SDS011;40603;48.774;8.916;2023-05-23T05:15:46;68.00;;;44.88;;
54705;SDS011;40603;48.774;8.916;2023-05-23T05:18:11;69.07;;;46.80;;
54705;SDS011;40603;48.774;8.916;2023-05-23T05:20:37;69.18;;;47.30;;
54705;SDS011;40603;48.774;8.916;2023-05-23T05:23:02;69.07;;;46.47;;
54705;SDS011;40603;48.774;8.916;2023-05-23T05:25:28;68.93;;;46.88;;
54705;SDS011;40603;48.774;8.916;2023-05-23T05:27:56;70.53;;;46.72;;
54705;SDS011;40603;48.774;8.916;2023-05-23T05:30:22;72.63;;;45.47;;
54705;SDS011;40603;48.774;8.916;2023-05-23T05:32:48;62.78;;;43.72;;
54705;SDS011;40603;48.774;8.916;2023-05-23T05:35:13;68.57;;;45.30;;
54705;SDS011;40603;48.774;8.916;2023-05-23T05:37:38;72.38;;;46.42;;
54705;SDS011;40603;48.774;8.916;2023-05-23T05:40:04;69.05;;;46.15;;
54705;SDS011;40603;48.774;8.916;2023-05-23T05:42:31;71.28;;;44.90;;
54705;SDS011;40603;48.774;8.916;2023-05-23T05:44:57;65.03;;;43.17;;
54705;SDS011;40603;48.774;8.916;2023-05-23T05:47:22;62.90;;;42.90;;
54705;SDS011;40603;48.774;8.916;2023-05-23T05:49:47;70.10;;;43.85;;
54705;SDS011;40603;48.774;8.916;2023-05-23T05:52:13;60.25;;;43.80;;
54705;SDS011;40603;48.774;8.916;2023-05-23T05:54:38;63.53;;;41.22;;
54705;SDS011;40603;48.774;8.916;2023-05-23T05:57:03;61.17;;;41.08;;
54705;SDS011;40603;48.774;8.916;2023-05-23T05:59:29;62.08;;;42.75;;
54705;SDS011;40603;48.774;8.916;2023-05-23T06:01:54;59.70;;;39.25;;
54705;SDS011;40603;48.774;8.916;2023-05-23T06:04:19;57.80;;;39.95;;
54705;SDS011;40603;48.774;8.916;2023-05-23T06:06:45;59.47;;;40.63;;
54705;SDS011;40603;48.774;8.916;2023-05-23T06:09:10;60.35;;;39.60;;
54705;SDS011;40603;48.774;8.916;2023-05-23T06:11:36;56.47;;;39.42;;
54705;SDS011;40603;48.774;8.916;2023-05-23T06:14:04;52.55;;;38.15;;
54705;SDS011;40603;48.774;8.916;2023-05-23T06:16:30;46.65;;;35.90;;
54705;SDS011;40603;48.774;8.916;2023-05-23T06:18:55;51.58;;;34.95;;
54705;SDS011;40603;48.774;8.916;2023-05-23T06:21:20;50.85;;;35.40;;
54705;SDS011;40603;48.774;8.916;2023-05-23T06:23:46;48.33;;;35.80;;
54705;SDS011;40603;48.774;8.916;2023-05-23T06:26:11;52.20;;;36.75;;
54705;SDS011;40603;48.774;8.916;2023-05-23T06:28:37;55.30;;;38.30;;
54705;SDS011;40603;48.774;8.916;2023-05-23T06:31:03;51.53;;;35.88;;
54705;SDS011;40603;48.774;8.916;2023-05-23T06:33:29;54.58;;;37.50;;
54705;SDS011;40603;48.774;8.916;2023-05-23T06:35:55;54.05;;;37.88;;
54705;SDS011;40603;48.774;8.916;2023-05-23T06:38:21;49.65;;;35.88;;
54705;SDS011;40603;48.774;8.916;2023-05-23T06:40:46;50.40;;;34.78;;
54705;SDS011;40603;48.774;8.916;2023-05-23T06:43:11;45.70;;;32.92;;
54705;SDS011;40603;48.774;8.916;2023-05-23T06:45:37;48.13;;;34.08;;
54705;SDS011;40603;48.774;8.916;2023-05-23T06:48:02;43.83;;;32.08;;
54705;SDS011;40603;48.774;8.916;2023-05-23T06:50:28;46.33;;;32.95;;
54705;SDS011;40603;48.774;8.916;2023-05-23T06:52:53;44.15;;;32.40;;
54705;SDS011;40603;48.774;8.916;2023-05-23T06:55:19;45.80;;;30.85;;
54705;SDS011;40603;48.774;8.916;2023-05-23T06:57:44;43.85;;;32.50;;
54705;SDS011;40603;48.774;8.916;2023-05-23T07:00:10;41.42;;;30.70;;
54705;SDS011;40603;48.774;8.916;2023-05-23T07:02:37;43.60;;;32.17;;
54705;SDS011;40603;48.774;8.916;2023-05-23T07:05:02;45.17;;;32.53;;
54705;SDS011;40603;48.774;8.916;2023-05-23T07:07:28;47.60;;;32.05;;
54705;SDS011;40603;48.774;8.916;2023-05-23T07:09:55;41.35;;;30.48;;
54705;SDS011;40603;48.774;8.916;2023-05-23T07:12:20;42.15;;;30.58;;
54705;SDS011;40603;48.774;8.916;2023-05-23T07:14:45;41.83;;;31.35;;
54705;SDS011;40603;48.774;8.916;2023-05-23T07:17:10;42.75;;;31.52;;
54705;SDS011;40603;48.774;8.916;2023-05-23T07:19:36;43.17;;;29.85;;
54705;SDS011;40603;48.774;8.916;2023-05-23T07:22:01;47.05;;;30.83;;
54705;SDS011;40603;48.774;8.916;2023-05-23T07:24:27;41.25;;;31.38;;
54705;SDS011;40603;48.774;8.916;2023-05-23T07:26:52;46.10;;;33.42;;
54705;SDS011;40603;48.774;8.916;2023-05-23T07:29:17;45.10;;;30.17;;
54705;SDS011;40603;48.774;8.916;2023-05-23T07:31:43;45.22;;;31.10;;
54705;SDS011;40603;48.774;8.916;2023-05-23T07:34:08;41.80;;;30.48;;
54705;SDS011;40603;48.774;8.916;2023-05-23T07:36:33;39.83;;;29.85;;
54705;SDS011;40603;48.774;8.916;2023-05-23T07:38:59;38.95;;;28.80;;
54705;SDS011;40603;48.774;8.916;2023-05-23T07:41:25;40.53;;;29.80;;
54705;SDS011;40603;48.774;8.916;2023-05-23T07:43:50;38.30;;;29.20;;
54705;SDS011;40603;48.774;8.916;2023-05-23T07:46:16;42.78;;;30.98;;
54705;SDS011;40603;48.774;8.916;2023-05-23T07:48:41;42.47;;;28.08;;
54705;SDS011;40603;48.774;8.916;2023-05-23T07:51:06;37.58;;;28.33;;
54705;SDS011;40603;48.774;8.916;2023-05-23T07:53:32;38.20;;;28.02;;
54705;SDS011;40603;48.774;8.916;2023-05-23T07:55:57;39.08;;;27.05;;
54705;SDS011;40603;48.774;8.916;2023-05-23T07:58:22;37.13;;;26.58;;
54705;SDS011;40603;48.774;8.916;2023-05-23T08:00:48;38.78;;;26.52;;
54705;SDS011;40603;48.774;8.916;2023-05-23T08:03:14;33.67;;;25.67;;
54705;SDS011;40603;48.774;8.916;2023-05-23T08:05:40;36.22;;;24.00;;
54705;SDS011;40603;48.774;8.916;2023-05-23T08:08:06;32.28;;;24.23;;
54705;SDS011;40603;48.774;8.916;2023-05-23T08:10:31;35.20;;;24.77;;
54705;SDS011;40603;48.774;8.916;2023-05-23T08:12:56;34.85;;;24.25;;
54705;SDS011;40603;48.774;8.916;2023-05-23T08:15:24;37.55;;;24.05;;
54705;SDS011;40603;48.774;8.916;2023-05-23T08:17:49;33.45;;;23.25;;
54705;SDS011;40603;48.774;8.916;2023-05-23T08:20:15;32.47;;;22.17;;
54705;SDS011;40603;48.774;8.916;2023-05-23T08:22:40;30.05;;;20.83;;
54705;SDS011;40603;48.774;8.916;2023-05-23T08:25:05;29.05;;;22.00;;
54705;SDS011;40603;48.774;8.916;2023-05-23T08:27:31;29.92;;;21.48;;
54705;SDS011;40603;48.774;8.916;2023-05-23T08:29:57;31.52;;;22.17;;
54705;SDS011;40603;48.774;8.916;2023-05-23T08:32:23;29.45;;;20.92;;
54705;SDS011;40603;48.774;8.916;2023-05-23T08:34:48;29.08;;;21.95;;
54705;SDS011;40603;48.774;8.916;2023-05-23T08:37:14;27.65;;;21.30;;
54705;SDS011;40603;48.774;8.916;2023-05-23T08:39:39;31.98;;;21.80;;
54705;SDS011;40603;48.774;8.916;2023-05-23T08:42:05;27.17;;;21.02;;
54705;SDS011;40603;48.774;8.916;2023-05-23T08:44:30;28.58;;;20.27;;
54705;SDS011;40603;48.774;8.916;2023-05-23T08:46:56;31.75;;;21.23;;
54705;SDS011;40603;48.774;8.916;2023-05-23T08:49:29;27.55;;;19.20;;
54705;SDS011;40603;48.774;8.916;2023-05-23T08:51:55;26.70;;;20.77;;
54705;SDS011;40603;48.774;8.916;2023-05-23T08:54:22;28.50;;;21.50;;
54705;SDS011;40603;48.774;8.916;2023-05-23T08:56:48;32.55;;;21.10;;
54705;SDS011;40603;48.774;8.916;2023-05-23T08:59:13;25.98;;;20.00;;
54705;SDS011;40603;48.774;8.916;2023-05-23T09:01:40;28.52;;;19.10;;
54705;SDS011;40603;48.774;8.916;2023-05-23T09:04:05;26.17;;;19.17;;
54705;SDS011;40603;48.774;8.916;2023-05-23T09:06:31;26.75;;;18.67;;
54705;SDS011;40603;48.774;8.916;2023-05-23T09:08:56;29.60;;;18.33;;
54705;SDS011;40603;48.774;8.916;2023-05-23T09:11:22;22.33;;;16.75;;
54705;SDS011;40603;48.774;8.916;2023-05-23T09:13:48;23.50;;;16.13;;
54705;SDS011;40603;48.774;8.916;2023-05-23T09:16:14;23.58;;;15.35;;
54705;SDS011;40603;48.774;8.916;2023-05-23T09:18:42;18.60;;;14.52;;
54705;SDS011;40603;48.774;8.916;2023-05-23T09:21:08;21.95;;;15.25;;
54705;SDS011;40603;48.774;8.916;2023-05-23T09:23:34;20.48;;;14.48;;
54705;SDS011;40603;48.774;8.916;2023-05-23T09:26:05;20.92;;;14.68;;
54705;SDS011;40603;48.774;8.916;2023-05-23T09:28:35;22.10;;;14.05;;
54705;SDS011;40603;48.774;8.916;2023-05-23T09:31:02;17.67;;;13.80;;
54705;SDS011;40603;48.774;8.916;2023-05-23T09:33:49;17.23;;;14.10;;
54705;SDS011;40603;48.774;8.916;2023-05-23T09:36:14;19.25;;;15.00;;
54705;SDS011;40603;48.774;8.916;2023-05-23T09:38:41;21.60;;;14.68;;
54705;SDS011;40603;48.774;8.916;2023-05-23T09:41:10;20.30;;;13.40;;
54705;SDS011;40603;48.774;8.916;2023-05-23T09:43:38;18.85;;;13.82;;
54705;SDS011;40603;48.774;8.916;2023-05-23T09:46:11;21.30;;;13.73;;
54705;SDS011;40603;48.774;8.916;2023-05-23T09:48:36;16.25;;;12.75;;
54705;SDS011;40603;48.774;8.916;2023-05-23T09:51:02;16.92;;;13.15;;
54705;SDS011;40603;48.774;8.916;2023-05-23T09:53:28;20.52;;;14.18;;
54705;SDS011;40603;48.774;8.916;2023-05-23T09:55:54;17.27;;;13.63;;
54705;SDS011;40603;48.774;8.916;2023-05-23T09:58:20;20.10;;;13.52;;
54705;SDS011;40603;48.774;8.916;2023-05-23T10:00:48;21.55;;;12.93;;
54705;SDS011;40603;48.774;8.916;2023-05-23T10:03:15;18.05;;;12.20;;
54705;SDS011;40603;48.774;8.916;2023-05-23T10:08:15;15.38;;;11.57;;
54705;SDS011;40603;48.774;8.916;2023-05-23T10:13:27;24.27;;;11.13;;
54705;SDS011;40603;48.774;8.916;2023-05-23T10:16:01;14.27;;;10.80;;
54705;SDS011;40603;48.774;8.916;2023-05-23T10:18:51;15.23;;;10.77;;
54705;SDS011;40603;48.774;8.916;2023-05-23T10:21:18;12.02;;;9.18;;
54705;SDS011;40603;48.774;8.916;2023-05-23T10:23:50;15.10;;;9.13;;
54705;SDS011;40603;48.774;8.916;2023-05-23T10:26:16;12.95;;;10.30;;
54705;SDS011;40603;48.774;8.916;2023-05-23T10:28:42;14.65;;;10.55;;
54705;SDS011;40603;48.774;8.916;2023-05-23T10:31:08;18.17;;;12.85;;
54705;SDS011;40603;48.774;8.916;2023-05-23T10:33:35;15.82;;;11.00;;
54705;SDS011;40603;48.774;8.916;2023-05-23T10:36:11;14.68;;;11.77;;
54705;SDS011;40603;48.774;8.916;2023-05-23T10:38:47;18.85;;;13.27;;
54705;SDS011;40603;48.774;8.916;2023-05-23T10:41:26;17.25;;;13.00;;
54705;SDS011;40603;48.774;8.916;2023-05-23T10:44:16;14.70;;;11.48;;
54705;SDS011;40603;48.774;8.916;2023-05-23T10:46:49;16.00;;;11.77;;
54705;SDS011;40603;48.774;8.916;2023-05-23T10:49:16;13.93;;;12.13;;
54705;SDS011;40603;48.774;8.916;2023-05-23T10:51:42;15.82;;;11.88;;
54705;SDS011;40603;48.774;8.916;2023-05-23T10:54:09;15.95;;;11.80;;
54705;SDS011;40603;48.774;8.916;2023-05-23T10:56:36;15.90;;;12.20;;
54705;SDS011;40603;48.774;8.916;2023-05-23T10:59:01;15.35;;;10.88;;
54705;SDS011;40603;48.774;8.916;2023-05-23T11:01:30;14.38;;;11.38;;
54705;SDS011;40603;48.774;8.916;2023-05-23T11:03:55;16.25;;;12.30;;
54705;SDS011;40603;48.774;8.916;2023-05-23T11:09:07;14.52;;;10.75;;
54705;SDS011;40603;48.774;8.916;2023-05-23T11:14:19;13.18;;;10.75;;
54705;SDS011;40603;48.774;8.916;2023-05-23T11:16:46;13.18;;;10.52;;
54705;SDS011;40603;48.774;8.916;2023-05-23T11:21:45;13.27;;;8.68;;
54705;SDS011;40603;48.774;8.916;2023-05-23T11:24:12;11.75;;;8.75;;
54705;SDS011;40603;48.774;8.916;2023-05-23T11:26:37;9.52;;;8.52;;
54705;SDS011;40603;48.774;8.916;2023-05-23T11:29:03;10.73;;;8.88;;
54705;SDS011;40603;48.774;8.916;2023-05-23T11:31:39;10.63;;;7.97;;
54705;SDS011;40603;48.774;8.916;2023-05-23T11:34:05;10.45;;;7.70;;
54705;SDS011;40603;48.774;8.916;2023-05-23T11:36:30;9.60;;;8.02;;
54705;SDS011;40603;48.774;8.916;2023-05-23T11:38:59;12.15;;;7.90;;
54705;SDS011;40603;48.774;8.916;2023-05-23T11:41:27;9.70;;;8.35;;
54705;SDS011;40603;48.774;8.916;2023-05-23T11:43:52;11.07;;;7.93;;
54705;SDS011;40603;48.774;8.916;2023-05-23T11:46:17;12.20;;;8.38;;
54705;SDS011;40603;48.774;8.916;2023-05-23T11:48:43;11.88;;;7.70;;
54705;SDS011;40603;48.774;8.916;2023-05-23T11:51:13;9.38;;;7.32;;
54705;SDS011;40603;48.774;8.916;2023-05-23T11:53:38;9.18;;;7.20;;
54705;SDS011;40603;48.774;8.916;2023-05-23T11:56:04;11.35;;;7.55;;
54705;SDS011;40603;48.774;8.916;2023-05-23T11:58:36;9.40;;;7.50;;
54705;SDS011;40603;48.774;8.916;2023-05-23T12:03:28;9.52;;;6.70;;
54705;SDS011;40603;48.774;8.916;2023-05-23T12:05:54;10.90;;;6.25;;
54705;SDS011;40603;48.774;8.916;2023-05-23T12:08:19;7.93;;;6.40;;
54705;SDS011;40603;48.774;8.916;2023-05-23T12:10:49;7.18;;;5.55;;
54705;SDS011;40603;48.774;8.916;2023-05-23T12:13:16;6.28;;;5.13;;
54705;SDS011;40603;48.774;8.916;2023-05-23T12:15:41;6.25;;;5.25;;
54705;SDS011;40603;48.774;8.916;2023-05-23T12:18:07;5.65;;;4.80;;
54705;SDS011;40603;48.774;8.916;2023-05-23T12:20:32;5.90;;;4.78;;
54705;SDS011;40603;48.774;8.916;2023-05-23T12:23:03;7.20;;;5.30;;
54705;SDS011;40603;48.774;8.916;2023-05-23T12:25:36;7.13;;;5.18;;
54705;SDS011;40603;48.774;8.916;2023-05-23T12:28:03;9.60;;;5.63;;
54705;SDS011;40603;48.774;8.916;2023-05-23T12:30:29;6.95;;;6.05;;
54705;SDS011;40603;48.774;8.916;2023-05-23T12:33:06;7.15;;;5.32;;
54705;SDS011;40603;48.774;8.916;2023-05-23T12:35:32;6.10;;;5.47;;
54705;SDS011;40603;48.774;8.916;2023-05-23T12:37:58;12.95;;;5.07;;
54705;SDS011;40603;48.774;8.916;2023-05-23T12:40:23;6.65;;;4.93;;
54705;SDS011;40603;48.774;8.916;2023-05-23T12:45:25;6.88;;;5.07;;
54705;SDS011;40603;48.774;8.916;2023-05-23T12:47:55;5.80;;;4.65;;
54705;SDS011;40603;48.774;8.916;2023-05-23T12:50:21;6.72;;;5.00;;
54705;SDS011;40603;48.774;8.916;2023-05-23T12:52:46;5.85;;;5.00;;
54705;SDS011;40603;48.774;8.916;2023-05-23T12:55:11;6.38;;;4.82;;
54705;SDS011;40603;48.774;8.916;2023-05-23T12:57:37;8.23;;;4.93;;
54705;SDS011;40603;48.774;8.916;2023-05-23T13:00:02;9.25;;;5.43;;
54705;SDS011;40603;48.774;8.916;2023-05-23T13:02:28;6.80;;;5.05;;
54705;SDS011;40603;48.774;8.916;2023-05-23T13:04:54;5.90;;;4.40;;
54705;SDS011;40603;48.774;8.916;2023-05-23T13:07:19;5.18;;;3.83;;
54705;SDS011;40603;48.774;8.916;2023-05-23T13:09:44;3.95;;;3.55;;
54705;SDS011;40603;48.774;8.916;2023-05-23T13:12:10;4.32;;;3.92;;
54705;SDS011;40603;48.774;8.916;2023-05-23T13:14:36;4.18;;;3.75;;
54705;SDS011;40603;48.774;8.916;2023-05-23T13:17:01;4.38;;;3.97;;
54705;SDS011;40603;48.774;8.916;2023-05-23T13:19:27;5.20;;;3.67;;
54705;SDS011;40603;48.774;8.916;2023-05-23T13:21:52;4.85;;;4.03;;
54705;SDS011;40603;48.774;8.916;2023-05-23T13:24:17;6.30;;;3.97;;
54705;SDS011;40603;48.774;8.916;2023-05-23T13:26:43;8.45;;;4.10;;
54705;SDS011;40603;48.774;8.916;2023-05-23T13:29:08;4.97;;;4.47;;
54705;SDS011;40603;48.774;8.916;2023-05-23T13:31:33;4.82;;;4.07;;
54705;SDS011;40603;48.774;8.916;2023-05-23T13:33:59;5.90;;;4.03;;
54705;SDS011;40603;48.774;8.916;2023-05-23T13:36:24;4.30;;;3.90;;
54705;SDS011;40603;48.774;8.916;2023-05-23T13:38:49;5.07;;;4.30;;
54705;SDS011;40603;48.774;8.916;2023-05-23T13:41:15;4.72;;;3.95;;
54705;SDS011;40603;48.774;8.916;2023-05-23T13:43:40;5.47;;;4.00;;
54705;SDS011;40603;48.774;8.916;2023-05-23T13:46:06;4.47;;;3.42;;
54705;SDS011;40603;48.774;8.916;2023-05-23T13:48:31;6.50;;;3.85;;
54705;SDS011;40603;48.774;8.916;2023-05-23T13:50:56;5.90;;;3.40;;
54705;SDS011;40603;48.774;8.916;2023-05-23T13:53:22;5.38;;;3.85;;
54705;SDS011;40603;48.774;8.916;2023-05-23T13:55:47;4.82;;;3.65;;
54705;SDS011;40603;48.774;8.916;2023-05-23T13:58:12;4.55;;;3.78;;
54705;SDS011;40603;48.774;8.916;2023-05-23T14:00:38;4.70;;;4.00;;
54705;SDS011;40603;48.774;8.916;2023-05-23T14:03:04;9.45;;;3.60;;
54705;SDS011;40603;48.774;8.916;2023-05-23T14:05:29;5.82;;;3.90;;
54705;SDS011;40603;48.774;8.916;2023-05-23T14:07:54;5.18;;;4.13;;
54705;SDS011;40603;48.774;8.916;2023-05-23T14:10:20;4.00;;;3.60;;
54705;SDS011;40603;48.774;8.916;2023-05-23T14:12:45;4.47;;;3.33;;
54705;SDS011;40603;48.774;8.916;2023-05-23T14:15:11;6.10;;;4.07;;
54705;SDS011;40603;48.774;8.916;2023-05-23T14:17:37;8.00;;;4.68;;
54705;SDS011;40603;48.774;8.916;2023-05-23T14:20:03;5.47;;;4.53;;
54705;SDS011;40603;48.774;8.916;2023-05-23T14:22:28;5.10;;;4.07;;
54705;SDS011;40603;48.774;8.916;2023-05-23T14:24:53;4.72;;;3.42;;
54705;SDS011;40603;48.774;8.916;2023-05-23T14:27:19;3.90;;;3.50;;
54705;SDS011;40603;48.774;8.916;2023-05-23T14:29:44;5.18;;;3.38;;
54705;SDS011;40603;48.774;8.916;2023-05-23T14:32:11;6.35;;;3.55;;
54705;SDS011;40603;48.774;8.916;2023-05-23T14:34:36;4.47;;;3.35;;
54705;SDS011;40603;48.774;8.916;2023-05-23T14:37:02;7.10;;;3.63;;
54705;SDS011;40603;48.774;8.916;2023-05-23T14:39:27;4.95;;;3.50;;
54705;SDS011;40603;48.774;8.916;2023-05-23T14:41:53;5.38;;;3.67;;